sensor_id;sensor_type;location;lat;lon;timestamp;P1;durP1;ratioP1;P2;durP2;ratioP2
6412;SDS011;3239;48.714;9.472;2022-12-29T00:02:25;16.13;;;8.70;;
6412;SDS011;3239;48.714;9.472;2022-12-29T00:04:51;8.07;;;6.23;;
6412;SDS011;3239;48.714;9.472;2022-12-29T00:07:17;10.27;;;6.57;;
6412;SDS011;3239;48.714;9.472;2022-12-29T00:09:43;10.70;;;6.73;;
6412;SDS011;3239;48.714;9.472;2022-12-29T00:12:09;6.97;;;5.47;;
6412;SDS011;3239;48.714;9.472;2022-12-29T00:14:35;9.90;;;7.07;;
6412;SDS011;3239;48.714;9.472;2022-12-29T00:17:19;8.70;;;6.30;;
6412;SDS011;3239;48.714;9.472;2022-12-29T00:19:45;9.80;;;7.07;;
6412;SDS011;3239;48.714;9.472;2022-12-29T00:22:29;11.40;;;7.27;;
6412;SDS011;3239;48.714;9.472;2022-12-29T00:25:14;10.73;;;6.40;;
6412;SDS011;3239;48.714;9.472;2022-12-29T00:27:58;8.93;;;6.10;;
6412;SDS011;3239;48.714;9.472;2022-12-29T00:30:42;8.10;;;5.87;;
6412;SDS011;3239;48.714;9.472;2022-12-29T00:33:31;7.90;;;5.30;;
6412;SDS011;3239;48.714;9.472;2022-12-29T00:39:06;7.37;;;5.23;;
6412;SDS011;3239;48.714;9.472;2022-12-29T00:42:04;6.33;;;5.40;;
6412;SDS011;3239;48.714;9.472;2022-12-29T00:44:53;6.13;;;5.17;;
6412;SDS011;3239;48.714;9.472;2022-12-29T00:47:19;9.53;;;5.00;;
6412;SDS011;3239;48.714;9.472;2022-12-29T00:49:44;7.33;;;4.40;;
6412;SDS011;3239;48.714;9.472;2022-12-29T00:52:11;5.60;;;4.10;;
6412;SDS011;3239;48.714;9.472;2022-12-29T00:54:38;5.27;;;4.77;;
6412;SDS011;3239;48.714;9.472;2022-12-29T00:57:06;10.20;;;5.93;;
6412;SDS011;3239;48.714;9.472;2022-12-29T00:59:34;8.40;;;5.97;;
6412;SDS011;3239;48.714;9.472;2022-12-29T01:02:02;5.37;;;4.77;;
6412;SDS011;3239;48.714;9.472;2022-12-29T01:04:28;7.13;;;4.80;;
6412;SDS011;3239;48.714;9.472;2022-12-29T01:06:54;7.63;;;4.33;;
6412;SDS011;3239;48.714;9.472;2022-12-29T01:09:20;6.03;;;4.23;;
6412;SDS011;3239;48.714;9.472;2022-12-29T01:12:04;5.63;;;4.47;;
6412;SDS011;3239;48.714;9.472;2022-12-29T01:14:31;6.03;;;4.23;;
6412;SDS011;3239;48.714;9.472;2022-12-29T01:16:58;5.93;;;4.63;;
6412;SDS011;3239;48.714;9.472;2022-12-29T01:19:24;7.20;;;4.10;;
6412;SDS011;3239;48.714;9.472;2022-12-29T01:21:51;7.90;;;4.97;;
6412;SDS011;3239;48.714;9.472;2022-12-29T01:24:17;6.30;;;5.07;;
6412;SDS011;3239;48.714;9.472;2022-12-29T01:26:44;4.33;;;3.80;;
6412;SDS011;3239;48.714;9.472;2022-12-29T01:29:11;5.83;;;4.70;;
6412;SDS011;3239;48.714;9.472;2022-12-29T01:31:37;6.50;;;4.70;;
6412;SDS011;3239;48.714;9.472;2022-12-29T01:34:03;4.60;;;3.73;;
6412;SDS011;3239;48.714;9.472;2022-12-29T01:36:30;5.00;;;4.23;;
6412;SDS011;3239;48.714;9.472;2022-12-29T01:38:56;6.47;;;4.80;;
6412;SDS011;3239;48.714;9.472;2022-12-29T01:41:22;5.80;;;3.87;;
6412;SDS011;3239;48.714;9.472;2022-12-29T01:43:53;8.13;;;4.20;;
6412;SDS011;3239;48.714;9.472;2022-12-29T01:46:30;6.00;;;3.53;;
6412;SDS011;3239;48.714;9.472;2022-12-29T01:51:44;13.30;;;7.77;;
6412;SDS011;3239;48.714;9.472;2022-12-29T01:54:26;13.30;;;7.97;;
6412;SDS011;3239;48.714;9.472;2022-12-29T01:57:01;12.83;;;7.67;;
6412;SDS011;3239;48.714;9.472;2022-12-29T01:59:34;11.10;;;6.13;;
6412;SDS011;3239;48.714;9.472;2022-12-29T02:02:05;11.93;;;5.20;;
6412;SDS011;3239;48.714;9.472;2022-12-29T02:04:32;8.20;;;5.33;;
6412;SDS011;3239;48.714;9.472;2022-12-29T02:07:01;8.57;;;5.00;;
6412;SDS011;3239;48.714;9.472;2022-12-29T02:09:41;8.53;;;4.87;;
6412;SDS011;3239;48.714;9.472;2022-12-29T02:12:09;15.23;;;5.17;;
6412;SDS011;3239;48.714;9.472;2022-12-29T02:14:35;5.43;;;3.83;;
6412;SDS011;3239;48.714;9.472;2022-12-29T02:26:14;7.73;;;5.17;;
6412;SDS011;3239;48.714;9.472;2022-12-29T02:29:21;7.27;;;5.10;;
6412;SDS011;3239;48.714;9.472;2022-12-29T02:32:36;9.00;;;5.00;;
6412;SDS011;3239;48.714;9.472;2022-12-29T02:35:25;7.23;;;4.43;;
6412;SDS011;3239;48.714;9.472;2022-12-29T02:38:20;6.80;;;4.37;;
6412;SDS011;3239;48.714;9.472;2022-12-29T02:41:20;9.90;;;5.00;;
6412;SDS011;3239;48.714;9.472;2022-12-29T02:46:59;6.50;;;3.40;;
6412;SDS011;3239;48.714;9.472;2022-12-29T02:50:05;5.40;;;3.57;;
6412;SDS011;3239;48.714;9.472;2022-12-29T02:52:40;2.97;;;1.70;;
6412;SDS011;3239;48.714;9.472;2022-12-29T02:55:17;5.07;;;4.10;;
6412;SDS011;3239;48.714;9.472;2022-12-29T02:57:43;3.77;;;2.27;;
6412;SDS011;3239;48.714;9.472;2022-12-29T03:08:42;3.97;;;2.77;;
6412;SDS011;3239;48.714;9.472;2022-12-29T03:11:39;2.00;;;1.30;;
6412;SDS011;3239;48.714;9.472;2022-12-29T03:20:52;2.40;;;1.50;;
6412;SDS011;3239;48.714;9.472;2022-12-29T03:24:07;2.37;;;1.40;;
6412;SDS011;3239;48.714;9.472;2022-12-29T03:26:33;2.10;;;1.37;;
6412;SDS011;3239;48.714;9.472;2022-12-29T03:29:01;1.40;;;0.87;;
6412;SDS011;3239;48.714;9.472;2022-12-29T03:31:27;1.60;;;1.40;;
6412;SDS011;3239;48.714;9.472;2022-12-29T03:33:53;3.53;;;1.30;;
6412;SDS011;3239;48.714;9.472;2022-12-29T03:36:32;5.60;;;1.63;;
6412;SDS011;3239;48.714;9.472;2022-12-29T03:39:13;3.50;;;1.63;;
6412;SDS011;3239;48.714;9.472;2022-12-29T03:41:42;3.00;;;1.30;;
6412;SDS011;3239;48.714;9.472;2022-12-29T03:44:10;2.17;;;1.30;;
6412;SDS011;3239;48.714;9.472;2022-12-29T03:46:37;6.10;;;1.40;;
6412;SDS011;3239;48.714;9.472;2022-12-29T03:49:03;4.00;;;1.17;;
6412;SDS011;3239;48.714;9.472;2022-12-29T03:51:29;3.80;;;1.13;;
6412;SDS011;3239;48.714;9.472;2022-12-29T03:53:54;6.30;;;1.30;;
6412;SDS011;3239;48.714;9.472;2022-12-29T03:56:20;2.70;;;1.13;;
6412;SDS011;3239;48.714;9.472;2022-12-29T03:58:46;4.73;;;1.30;;
6412;SDS011;3239;48.714;9.472;2022-12-29T04:01:11;4.30;;;1.20;;
6412;SDS011;3239;48.714;9.472;2022-12-29T04:03:37;2.50;;;1.20;;
6412;SDS011;3239;48.714;9.472;2022-12-29T04:06:03;2.33;;;1.10;;
6412;SDS011;3239;48.714;9.472;2022-12-29T04:08:29;2.03;;;1.13;;
6412;SDS011;3239;48.714;9.472;2022-12-29T04:10:55;3.70;;;0.87;;
6412;SDS011;3239;48.714;9.472;2022-12-29T04:13:21;3.20;;;1.10;;
6412;SDS011;3239;48.714;9.472;2022-12-29T04:15:46;3.30;;;1.20;;
6412;SDS011;3239;48.714;9.472;2022-12-29T04:18:12;3.20;;;1.17;;
6412;SDS011;3239;48.714;9.472;2022-12-29T04:20:38;1.77;;;0.83;;
6412;SDS011;3239;48.714;9.472;2022-12-29T04:23:23;2.70;;;1.10;;
6412;SDS011;3239;48.714;9.472;2022-12-29T04:25:48;2.83;;;1.10;;
6412;SDS011;3239;48.714;9.472;2022-12-29T04:28:15;3.33;;;1.20;;
6412;SDS011;3239;48.714;9.472;2022-12-29T04:30:42;1.30;;;0.80;;
6412;SDS011;3239;48.714;9.472;2022-12-29T04:33:09;1.97;;;0.93;;
6412;SDS011;3239;48.714;9.472;2022-12-29T04:35:35;2.33;;;1.10;;
6412;SDS011;3239;48.714;9.472;2022-12-29T04:38:01;2.10;;;1.17;;
6412;SDS011;3239;48.714;9.472;2022-12-29T04:40:27;3.63;;;1.00;;
6412;SDS011;3239;48.714;9.472;2022-12-29T04:42:53;2.47;;;0.83;;
6412;SDS011;3239;48.714;9.472;2022-12-29T04:45:19;3.30;;;1.23;;
6412;SDS011;3239;48.714;9.472;2022-12-29T04:47:45;1.50;;;0.80;;
6412;SDS011;3239;48.714;9.472;2022-12-29T04:50:11;2.77;;;1.03;;
6412;SDS011;3239;48.714;9.472;2022-12-29T04:52:37;2.17;;;1.10;;
6412;SDS011;3239;48.714;9.472;2022-12-29T04:55:04;2.90;;;1.17;;
6412;SDS011;3239;48.714;9.472;2022-12-29T04:57:31;1.23;;;0.80;;
6412;SDS011;3239;48.714;9.472;2022-12-29T04:59:56;1.70;;;1.00;;
6412;SDS011;3239;48.714;9.472;2022-12-29T05:02:22;2.03;;;0.90;;
6412;SDS011;3239;48.714;9.472;2022-12-29T05:04:48;1.37;;;0.80;;
6412;SDS011;3239;48.714;9.472;2022-12-29T05:07:14;4.83;;;0.80;;
6412;SDS011;3239;48.714;9.472;2022-12-29T05:09:40;2.03;;;1.00;;
6412;SDS011;3239;48.714;9.472;2022-12-29T05:12:06;1.80;;;0.80;;
6412;SDS011;3239;48.714;9.472;2022-12-29T05:14:32;6.43;;;1.67;;
6412;SDS011;3239;48.714;9.472;2022-12-29T05:16:58;2.37;;;1.30;;
6412;SDS011;3239;48.714;9.472;2022-12-29T05:19:23;5.73;;;1.00;;
6412;SDS011;3239;48.714;9.472;2022-12-29T05:21:49;2.10;;;0.93;;
6412;SDS011;3239;48.714;9.472;2022-12-29T05:24:15;2.90;;;0.80;;
6412;SDS011;3239;48.714;9.472;2022-12-29T05:26:41;3.00;;;1.10;;
6412;SDS011;3239;48.714;9.472;2022-12-29T05:29:07;2.50;;;1.33;;
6412;SDS011;3239;48.714;9.472;2022-12-29T05:31:33;1.50;;;1.10;;
6412;SDS011;3239;48.714;9.472;2022-12-29T05:34:00;2.50;;;1.03;;
6412;SDS011;3239;48.714;9.472;2022-12-29T05:36:26;2.77;;;0.90;;
6412;SDS011;3239;48.714;9.472;2022-12-29T05:38:52;2.50;;;1.00;;
6412;SDS011;3239;48.714;9.472;2022-12-29T05:41:18;1.87;;;0.80;;
6412;SDS011;3239;48.714;9.472;2022-12-29T05:43:44;2.93;;;1.03;;
6412;SDS011;3239;48.714;9.472;2022-12-29T05:46:09;2.60;;;1.10;;
6412;SDS011;3239;48.714;9.472;2022-12-29T05:48:35;1.00;;;0.70;;
6412;SDS011;3239;48.714;9.472;2022-12-29T05:51:01;3.60;;;1.07;;
6412;SDS011;3239;48.714;9.472;2022-12-29T05:53:27;2.80;;;1.10;;
6412;SDS011;3239;48.714;9.472;2022-12-29T05:55:52;1.33;;;0.93;;
6412;SDS011;3239;48.714;9.472;2022-12-29T05:58:18;3.50;;;1.30;;
6412;SDS011;3239;48.714;9.472;2022-12-29T06:00:44;3.07;;;1.00;;
6412;SDS011;3239;48.714;9.472;2022-12-29T06:03:10;2.43;;;1.10;;
6412;SDS011;3239;48.714;9.472;2022-12-29T06:05:36;1.30;;;0.90;;
6412;SDS011;3239;48.714;9.472;2022-12-29T06:08:02;3.40;;;0.93;;
6412;SDS011;3239;48.714;9.472;2022-12-29T06:10:28;2.27;;;1.10;;
6412;SDS011;3239;48.714;9.472;2022-12-29T06:12:53;2.57;;;0.80;;
6412;SDS011;3239;48.714;9.472;2022-12-29T06:15:19;3.30;;;1.03;;
6412;SDS011;3239;48.714;9.472;2022-12-29T06:17:45;2.03;;;1.07;;
6412;SDS011;3239;48.714;9.472;2022-12-29T06:20:11;4.10;;;1.00;;
6412;SDS011;3239;48.714;9.472;2022-12-29T06:22:37;2.07;;;1.00;;
6412;SDS011;3239;48.714;9.472;2022-12-29T06:25:03;1.83;;;1.10;;
6412;SDS011;3239;48.714;9.472;2022-12-29T06:27:30;1.77;;;1.17;;
6412;SDS011;3239;48.714;9.472;2022-12-29T06:29:56;1.93;;;1.20;;
6412;SDS011;3239;48.714;9.472;2022-12-29T06:32:22;2.67;;;1.00;;
6412;SDS011;3239;48.714;9.472;2022-12-29T06:34:48;2.17;;;0.90;;
6412;SDS011;3239;48.714;9.472;2022-12-29T06:37:13;3.03;;;1.20;;
6412;SDS011;3239;48.714;9.472;2022-12-29T06:39:39;2.03;;;1.20;;
6412;SDS011;3239;48.714;9.472;2022-12-29T06:42:06;2.47;;;1.40;;
6412;SDS011;3239;48.714;9.472;2022-12-29T06:44:34;4.17;;;3.17;;
6412;SDS011;3239;48.714;9.472;2022-12-29T06:47:00;4.70;;;2.30;;
6412;SDS011;3239;48.714;9.472;2022-12-29T06:49:26;3.67;;;1.60;;
6412;SDS011;3239;48.714;9.472;2022-12-29T06:51:51;2.77;;;1.57;;
6412;SDS011;3239;48.714;9.472;2022-12-29T06:54:17;1.93;;;1.30;;
6412;SDS011;3239;48.714;9.472;2022-12-29T06:56:43;6.10;;;1.40;;
6412;SDS011;3239;48.714;9.472;2022-12-29T06:59:09;2.77;;;1.10;;
6412;SDS011;3239;48.714;9.472;2022-12-29T07:01:35;1.63;;;1.00;;
6412;SDS011;3239;48.714;9.472;2022-12-29T07:04:01;2.30;;;1.30;;
6412;SDS011;3239;48.714;9.472;2022-12-29T07:06:28;1.73;;;0.97;;
6412;SDS011;3239;48.714;9.472;2022-12-29T07:08:54;1.43;;;1.03;;
6412;SDS011;3239;48.714;9.472;2022-12-29T07:11:20;2.70;;;1.03;;
6412;SDS011;3239;48.714;9.472;2022-12-29T07:13:46;1.97;;;0.80;;
6412;SDS011;3239;48.714;9.472;2022-12-29T07:16:12;2.00;;;1.17;;
6412;SDS011;3239;48.714;9.472;2022-12-29T07:18:38;3.37;;;1.10;;
6412;SDS011;3239;48.714;9.472;2022-12-29T07:21:03;1.77;;;1.07;;
6412;SDS011;3239;48.714;9.472;2022-12-29T07:23:30;3.30;;;1.13;;
6412;SDS011;3239;48.714;9.472;2022-12-29T07:26:03;2.10;;;1.40;;
6412;SDS011;3239;48.714;9.472;2022-12-29T07:28:35;4.33;;;1.43;;
6412;SDS011;3239;48.714;9.472;2022-12-29T07:31:02;4.43;;;1.10;;
6412;SDS011;3239;48.714;9.472;2022-12-29T07:33:29;2.77;;;1.43;;
6412;SDS011;3239;48.714;9.472;2022-12-29T07:35:57;3.60;;;1.20;;
6412;SDS011;3239;48.714;9.472;2022-12-29T07:38:24;1.87;;;1.10;;
6412;SDS011;3239;48.714;9.472;2022-12-29T07:40:49;2.17;;;0.97;;
6412;SDS011;3239;48.714;9.472;2022-12-29T07:43:15;2.10;;;1.13;;
6412;SDS011;3239;48.714;9.472;2022-12-29T07:45:41;2.33;;;1.40;;
6412;SDS011;3239;48.714;9.472;2022-12-29T07:48:07;2.33;;;1.07;;
6412;SDS011;3239;48.714;9.472;2022-12-29T07:50:35;2.33;;;1.03;;
6412;SDS011;3239;48.714;9.472;2022-12-29T07:53:02;2.40;;;1.17;;
6412;SDS011;3239;48.714;9.472;2022-12-29T07:55:28;1.70;;;1.00;;
6412;SDS011;3239;48.714;9.472;2022-12-29T07:57:55;2.43;;;1.10;;
6412;SDS011;3239;48.714;9.472;2022-12-29T08:00:21;3.40;;;1.13;;
6412;SDS011;3239;48.714;9.472;2022-12-29T08:02:47;1.97;;;1.10;;
6412;SDS011;3239;48.714;9.472;2022-12-29T08:05:13;1.77;;;1.00;;
6412;SDS011;3239;48.714;9.472;2022-12-29T08:07:40;2.10;;;1.07;;
6412;SDS011;3239;48.714;9.472;2022-12-29T08:10:09;1.60;;;0.93;;
6412;SDS011;3239;48.714;9.472;2022-12-29T08:12:37;3.70;;;1.40;;
6412;SDS011;3239;48.714;9.472;2022-12-29T08:15:04;3.03;;;1.20;;
6412;SDS011;3239;48.714;9.472;2022-12-29T08:17:31;3.40;;;1.90;;
6412;SDS011;3239;48.714;9.472;2022-12-29T08:19:57;6.33;;;4.77;;
6412;SDS011;3239;48.714;9.472;2022-12-29T08:22:23;4.50;;;3.97;;
6412;SDS011;3239;48.714;9.472;2022-12-29T08:24:49;3.20;;;1.87;;
6412;SDS011;3239;48.714;9.472;2022-12-29T08:27:16;1.83;;;1.20;;
6412;SDS011;3239;48.714;9.472;2022-12-29T08:29:42;5.43;;;3.40;;
6412;SDS011;3239;48.714;9.472;2022-12-29T08:32:08;2.73;;;1.60;;
6412;SDS011;3239;48.714;9.472;2022-12-29T08:34:33;2.30;;;1.27;;
6412;SDS011;3239;48.714;9.472;2022-12-29T08:36:59;5.03;;;1.23;;
6412;SDS011;3239;48.714;9.472;2022-12-29T08:39:25;3.00;;;1.60;;
6412;SDS011;3239;48.714;9.472;2022-12-29T08:41:51;10.57;;;9.10;;
6412;SDS011;3239;48.714;9.472;2022-12-29T08:44:17;2.70;;;2.30;;
6412;SDS011;3239;48.714;9.472;2022-12-29T08:46:42;4.70;;;1.17;;
6412;SDS011;3239;48.714;9.472;2022-12-29T08:49:08;2.10;;;1.20;;
6412;SDS011;3239;48.714;9.472;2022-12-29T08:51:34;1.97;;;1.10;;
6412;SDS011;3239;48.714;9.472;2022-12-29T08:54:00;2.17;;;0.90;;
6412;SDS011;3239;48.714;9.472;2022-12-29T08:56:25;2.30;;;1.33;;
6412;SDS011;3239;48.714;9.472;2022-12-29T08:58:52;2.43;;;1.00;;
6412;SDS011;3239;48.714;9.472;2022-12-29T09:01:18;2.27;;;1.20;;
6412;SDS011;3239;48.714;9.472;2022-12-29T09:03:44;6.03;;;1.40;;
6412;SDS011;3239;48.714;9.472;2022-12-29T09:06:10;2.93;;;1.60;;
6412;SDS011;3239;48.714;9.472;2022-12-29T09:08:36;2.13;;;1.33;;
6412;SDS011;3239;48.714;9.472;2022-12-29T09:11:06;2.00;;;1.40;;
6412;SDS011;3239;48.714;9.472;2022-12-29T09:13:41;5.43;;;1.67;;
6412;SDS011;3239;48.714;9.472;2022-12-29T09:16:07;3.83;;;1.50;;
6412;SDS011;3239;48.714;9.472;2022-12-29T09:18:33;2.17;;;1.30;;
6412;SDS011;3239;48.714;9.472;2022-12-29T09:21:00;3.57;;;1.23;;
6412;SDS011;3239;48.714;9.472;2022-12-29T09:23:28;2.13;;;1.23;;
6412;SDS011;3239;48.714;9.472;2022-12-29T09:25:54;3.40;;;1.60;;
6412;SDS011;3239;48.714;9.472;2022-12-29T09:28:20;4.90;;;1.60;;
6412;SDS011;3239;48.714;9.472;2022-12-29T09:30:47;2.80;;;1.77;;
6412;SDS011;3239;48.714;9.472;2022-12-29T09:33:13;1.90;;;1.30;;
6412;SDS011;3239;48.714;9.472;2022-12-29T09:35:43;3.47;;;1.67;;
6412;SDS011;3239;48.714;9.472;2022-12-29T09:38:10;6.50;;;1.17;;
6412;SDS011;3239;48.714;9.472;2022-12-29T09:40:36;1.77;;;1.10;;
6412;SDS011;3239;48.714;9.472;2022-12-29T09:49:06;2.20;;;1.27;;
6412;SDS011;3239;48.714;9.472;2022-12-29T09:51:42;2.50;;;1.30;;
6412;SDS011;3239;48.714;9.472;2022-12-29T09:57:20;3.10;;;1.40;;
6412;SDS011;3239;48.714;9.472;2022-12-29T10:00:03;2.97;;;1.20;;
6412;SDS011;3239;48.714;9.472;2022-12-29T10:02:55;4.00;;;1.33;;
6412;SDS011;3239;48.714;9.472;2022-12-29T10:05:53;1.43;;;0.93;;
6412;SDS011;3239;48.714;9.472;2022-12-29T10:14:50;5.63;;;1.57;;
6412;SDS011;3239;48.714;9.472;2022-12-29T10:17:36;2.33;;;1.20;;
6412;SDS011;3239;48.714;9.472;2022-12-29T10:20:54;2.60;;;1.20;;
6412;SDS011;3239;48.714;9.472;2022-12-29T10:23:43;2.07;;;1.30;;
6412;SDS011;3239;48.714;9.472;2022-12-29T10:26:15;2.40;;;1.37;;
6412;SDS011;3239;48.714;9.472;2022-12-29T10:31:32;4.03;;;1.77;;
6412;SDS011;3239;48.714;9.472;2022-12-29T10:34:13;2.30;;;1.37;;
6412;SDS011;3239;48.714;9.472;2022-12-29T10:37:03;2.40;;;1.63;;
6412;SDS011;3239;48.714;9.472;2022-12-29T10:39:53;7.73;;;1.20;;
6412;SDS011;3239;48.714;9.472;2022-12-29T10:42:24;3.43;;;2.10;;
6412;SDS011;3239;48.714;9.472;2022-12-29T10:44:54;2.80;;;1.60;;
6412;SDS011;3239;48.714;9.472;2022-12-29T10:47:25;2.93;;;1.67;;
6412;SDS011;3239;48.714;9.472;2022-12-29T10:49:56;5.80;;;1.40;;
6412;SDS011;3239;48.714;9.472;2022-12-29T10:52:26;3.10;;;2.20;;
6412;SDS011;3239;48.714;9.472;2022-12-29T10:57:49;5.40;;;2.03;;
6412;SDS011;3239;48.714;9.472;2022-12-29T11:00:19;2.13;;;1.43;;
6412;SDS011;3239;48.714;9.472;2022-12-29T11:08:04;2.87;;;1.10;;
6412;SDS011;3239;48.714;9.472;2022-12-29T11:10:46;2.23;;;1.47;;
6412;SDS011;3239;48.714;9.472;2022-12-29T11:13:34;4.57;;;1.83;;
6412;SDS011;3239;48.714;9.472;2022-12-29T11:16:13;3.17;;;1.30;;
6412;SDS011;3239;48.714;9.472;2022-12-29T11:18:40;3.30;;;1.90;;
6412;SDS011;3239;48.714;9.472;2022-12-29T11:24:00;3.23;;;1.50;;
6412;SDS011;3239;48.714;9.472;2022-12-29T11:26:30;1.93;;;1.20;;
6412;SDS011;3239;48.714;9.472;2022-12-29T11:31:48;3.00;;;1.17;;
6412;SDS011;3239;48.714;9.472;2022-12-29T11:34:21;1.50;;;1.00;;
6412;SDS011;3239;48.714;9.472;2022-12-29T11:36:50;3.20;;;1.17;;
6412;SDS011;3239;48.714;9.472;2022-12-29T11:39:26;6.10;;;1.30;;
6412;SDS011;3239;48.714;9.472;2022-12-29T11:42:01;4.50;;;1.43;;
6412;SDS011;3239;48.714;9.472;2022-12-29T11:44:29;2.37;;;1.50;;
6412;SDS011;3239;48.714;9.472;2022-12-29T11:47:07;7.50;;;1.30;;
6412;SDS011;3239;48.714;9.472;2022-12-29T11:49:37;1.90;;;1.30;;
6412;SDS011;3239;48.714;9.472;2022-12-29T11:52:03;2.30;;;1.10;;
6412;SDS011;3239;48.714;9.472;2022-12-29T11:54:31;3.33;;;1.00;;
6412;SDS011;3239;48.714;9.472;2022-12-29T11:57:14;2.80;;;1.33;;
6412;SDS011;3239;48.714;9.472;2022-12-29T11:59:43;3.47;;;1.07;;
6412;SDS011;3239;48.714;9.472;2022-12-29T12:05:02;2.33;;;1.20;;
6412;SDS011;3239;48.714;9.472;2022-12-29T12:07:50;5.40;;;1.40;;
6412;SDS011;3239;48.714;9.472;2022-12-29T12:10:36;2.73;;;1.37;;
6412;SDS011;3239;48.714;9.472;2022-12-29T12:16:14;2.20;;;1.40;;
6412;SDS011;3239;48.714;9.472;2022-12-29T12:21:23;4.13;;;1.10;;
6412;SDS011;3239;48.714;9.472;2022-12-29T12:24:18;4.50;;;1.17;;
6412;SDS011;3239;48.714;9.472;2022-12-29T12:30:40;4.00;;;1.30;;
6412;SDS011;3239;48.714;9.472;2022-12-29T12:33:22;2.10;;;1.13;;
6412;SDS011;3239;48.714;9.472;2022-12-29T12:53:34;2.37;;;1.40;;
6412;SDS011;3239;48.714;9.472;2022-12-29T13:08:27;2.80;;;1.83;;
6412;SDS011;3239;48.714;9.472;2022-12-29T13:11:11;2.00;;;1.27;;
6412;SDS011;3239;48.714;9.472;2022-12-29T13:14:10;1.40;;;0.97;;
6412;SDS011;3239;48.714;9.472;2022-12-29T13:19:49;2.83;;;1.07;;
6412;SDS011;3239;48.714;9.472;2022-12-29T13:23:07;4.73;;;1.37;;
6412;SDS011;3239;48.714;9.472;2022-12-29T13:25:27;1.97;;;1.17;;
6412;SDS011;3239;48.714;9.472;2022-12-29T13:28:09;3.33;;;1.10;;
6412;SDS011;3239;48.714;9.472;2022-12-29T13:30:55;3.00;;;1.30;;
6412;SDS011;3239;48.714;9.472;2022-12-29T13:38:55;2.10;;;1.23;;
6412;SDS011;3239;48.714;9.472;2022-12-29T13:41:52;2.60;;;1.10;;
6412;SDS011;3239;48.714;9.472;2022-12-29T13:44:25;3.33;;;1.07;;
6412;SDS011;3239;48.714;9.472;2022-12-29T13:47:02;2.80;;;1.20;;
6412;SDS011;3239;48.714;9.472;2022-12-29T13:49:52;2.27;;;1.40;;
6412;SDS011;3239;48.714;9.472;2022-12-29T13:57:52;2.57;;;1.20;;
6412;SDS011;3239;48.714;9.472;2022-12-29T14:01:04;2.70;;;1.40;;
6412;SDS011;3239;48.714;9.472;2022-12-29T14:06:26;1.77;;;1.07;;
6412;SDS011;3239;48.714;9.472;2022-12-29T14:09:00;5.00;;;1.80;;
6412;SDS011;3239;48.714;9.472;2022-12-29T14:11:33;2.80;;;1.90;;
6412;SDS011;3239;48.714;9.472;2022-12-29T14:14:11;3.50;;;2.40;;
6412;SDS011;3239;48.714;9.472;2022-12-29T14:16:49;3.50;;;1.33;;
6412;SDS011;3239;48.714;9.472;2022-12-29T14:19:18;2.30;;;1.43;;
6412;SDS011;3239;48.714;9.472;2022-12-29T14:21:58;2.73;;;1.43;;
6412;SDS011;3239;48.714;9.472;2022-12-29T14:26:59;3.70;;;1.40;;
6412;SDS011;3239;48.714;9.472;2022-12-29T14:29:46;5.50;;;1.23;;
6412;SDS011;3239;48.714;9.472;2022-12-29T14:34:46;1.83;;;1.40;;
6412;SDS011;3239;48.714;9.472;2022-12-29T14:37:29;1.50;;;1.03;;
6412;SDS011;3239;48.714;9.472;2022-12-29T14:42:47;2.57;;;1.47;;
6412;SDS011;3239;48.714;9.472;2022-12-29T14:47:44;3.43;;;1.37;;
6412;SDS011;3239;48.714;9.472;2022-12-29T14:52:55;2.87;;;2.07;;
6412;SDS011;3239;48.714;9.472;2022-12-29T14:58:05;4.80;;;1.97;;
6412;SDS011;3239;48.714;9.472;2022-12-29T15:01:03;4.50;;;2.07;;
6412;SDS011;3239;48.714;9.472;2022-12-29T15:03:47;3.50;;;2.23;;
6412;SDS011;3239;48.714;9.472;2022-12-29T15:06:15;3.33;;;2.00;;
6412;SDS011;3239;48.714;9.472;2022-12-29T15:08:51;3.60;;;2.33;;
6412;SDS011;3239;48.714;9.472;2022-12-29T15:11:41;4.33;;;1.90;;
6412;SDS011;3239;48.714;9.472;2022-12-29T15:14:33;6.97;;;1.63;;
6412;SDS011;3239;48.714;9.472;2022-12-29T15:17:00;2.67;;;1.87;;
6412;SDS011;3239;48.714;9.472;2022-12-29T15:19:34;2.40;;;1.70;;
6412;SDS011;3239;48.714;9.472;2022-12-29T15:22:01;2.70;;;2.03;;
6412;SDS011;3239;48.714;9.472;2022-12-29T15:24:27;2.23;;;1.83;;
6412;SDS011;3239;48.714;9.472;2022-12-29T15:26:54;3.27;;;2.77;;
6412;SDS011;3239;48.714;9.472;2022-12-29T15:29:30;2.13;;;1.57;;
6412;SDS011;3239;48.714;9.472;2022-12-29T15:32:02;3.73;;;1.77;;
6412;SDS011;3239;48.714;9.472;2022-12-29T15:34:42;3.77;;;1.50;;
6412;SDS011;3239;48.714;9.472;2022-12-29T15:37:15;2.70;;;1.70;;
6412;SDS011;3239;48.714;9.472;2022-12-29T15:39:50;2.70;;;1.33;;
6412;SDS011;3239;48.714;9.472;2022-12-29T15:42:23;2.00;;;1.50;;
6412;SDS011;3239;48.714;9.472;2022-12-29T15:45:15;3.47;;;1.67;;
6412;SDS011;3239;48.714;9.472;2022-12-29T15:47:41;2.90;;;1.60;;
6412;SDS011;3239;48.714;9.472;2022-12-29T15:50:26;2.90;;;1.83;;
6412;SDS011;3239;48.714;9.472;2022-12-29T15:52:57;2.40;;;2.00;;
6412;SDS011;3239;48.714;9.472;2022-12-29T15:58:03;2.83;;;1.83;;
6412;SDS011;3239;48.714;9.472;2022-12-29T16:00:46;3.27;;;2.20;;
6412;SDS011;3239;48.714;9.472;2022-12-29T16:03:35;3.97;;;1.87;;
6412;SDS011;3239;48.714;9.472;2022-12-29T16:06:09;3.93;;;2.23;;
6412;SDS011;3239;48.714;9.472;2022-12-29T16:09:04;3.10;;;1.87;;
6412;SDS011;3239;48.714;9.472;2022-12-29T16:14:02;6.40;;;4.33;;
6412;SDS011;3239;48.714;9.472;2022-12-29T16:16:40;7.83;;;2.90;;
6412;SDS011;3239;48.714;9.472;2022-12-29T16:19:21;2.30;;;1.47;;
6412;SDS011;3239;48.714;9.472;2022-12-29T16:21:57;3.30;;;1.70;;
6412;SDS011;3239;48.714;9.472;2022-12-29T16:24:25;2.60;;;1.73;;
6412;SDS011;3239;48.714;9.472;2022-12-29T16:27:06;4.63;;;2.30;;
6412;SDS011;3239;48.714;9.472;2022-12-29T16:29:48;5.73;;;2.33;;
6412;SDS011;3239;48.714;9.472;2022-12-29T16:32:23;5.50;;;2.27;;
6412;SDS011;3239;48.714;9.472;2022-12-29T16:35:11;4.60;;;2.87;;
6412;SDS011;3239;48.714;9.472;2022-12-29T16:37:47;8.37;;;3.80;;
6412;SDS011;3239;48.714;9.472;2022-12-29T16:40:38;5.30;;;2.80;;
6412;SDS011;3239;48.714;9.472;2022-12-29T16:43:19;4.20;;;2.33;;
6412;SDS011;3239;48.714;9.472;2022-12-29T16:48:18;3.63;;;1.50;;
6412;SDS011;3239;48.714;9.472;2022-12-29T16:50:47;4.90;;;2.13;;
6412;SDS011;3239;48.714;9.472;2022-12-29T16:53:27;4.73;;;3.27;;
6412;SDS011;3239;48.714;9.472;2022-12-29T16:55:58;3.30;;;2.00;;
6412;SDS011;3239;48.714;9.472;2022-12-29T16:58:50;2.60;;;1.90;;
6412;SDS011;3239;48.714;9.472;2022-12-29T17:01:20;3.20;;;2.20;;
6412;SDS011;3239;48.714;9.472;2022-12-29T17:03:48;5.37;;;2.97;;
6412;SDS011;3239;48.714;9.472;2022-12-29T17:06:19;12.63;;;7.33;;
6412;SDS011;3239;48.714;9.472;2022-12-29T17:08:47;9.10;;;6.67;;
6412;SDS011;3239;48.714;9.472;2022-12-29T17:14:14;6.10;;;3.27;;
6412;SDS011;3239;48.714;9.472;2022-12-29T17:16:45;7.90;;;3.03;;
6412;SDS011;3239;48.714;9.472;2022-12-29T17:19:15;4.90;;;4.00;;
6412;SDS011;3239;48.714;9.472;2022-12-29T17:21:54;10.73;;;6.97;;
6412;SDS011;3239;48.714;9.472;2022-12-29T17:24:19;15.43;;;7.60;;
6412;SDS011;3239;48.714;9.472;2022-12-29T17:26:46;10.67;;;9.40;;
6412;SDS011;3239;48.714;9.472;2022-12-29T17:29:29;9.10;;;5.20;;
6412;SDS011;3239;48.714;9.472;2022-12-29T17:32:04;8.57;;;5.27;;
6412;SDS011;3239;48.714;9.472;2022-12-29T17:34:37;6.53;;;5.37;;
6412;SDS011;3239;48.714;9.472;2022-12-29T17:39:49;7.63;;;6.20;;
6412;SDS011;3239;48.714;9.472;2022-12-29T17:42:15;7.50;;;5.07;;
6412;SDS011;3239;48.714;9.472;2022-12-29T17:44:43;11.60;;;6.80;;
6412;SDS011;3239;48.714;9.472;2022-12-29T17:47:09;8.10;;;5.77;;
6412;SDS011;3239;48.714;9.472;2022-12-29T17:49:36;6.47;;;5.40;;
6412;SDS011;3239;48.714;9.472;2022-12-29T17:52:02;8.80;;;7.40;;
6412;SDS011;3239;48.714;9.472;2022-12-29T17:54:29;10.60;;;6.10;;
6412;SDS011;3239;48.714;9.472;2022-12-29T17:56:55;8.80;;;6.73;;
6412;SDS011;3239;48.714;9.472;2022-12-29T17:59:21;11.33;;;9.60;;
6412;SDS011;3239;48.714;9.472;2022-12-29T18:01:47;8.20;;;6.87;;
6412;SDS011;3239;48.714;9.472;2022-12-29T18:04:14;8.50;;;7.13;;
6412;SDS011;3239;48.714;9.472;2022-12-29T18:06:43;6.60;;;4.33;;
6412;SDS011;3239;48.714;9.472;2022-12-29T18:09:10;7.70;;;6.60;;
6412;SDS011;3239;48.714;9.472;2022-12-29T18:11:37;8.50;;;7.00;;
6412;SDS011;3239;48.714;9.472;2022-12-29T18:14:10;5.83;;;4.30;;
6412;SDS011;3239;48.714;9.472;2022-12-29T18:16:41;9.40;;;7.17;;
6412;SDS011;3239;48.714;9.472;2022-12-29T18:19:07;20.47;;;13.53;;